This is the latest recevied weather packets stored in our database for station/object ON7XX-13. If no packets are shown the sender has not sent any weather packets the latest 10 day(s).
| Time | Temp. | Humidity | Pressure | Rain* | Wind** | Luminosity | Snow |
|---|---|---|---|---|---|---|---|
| 1777540767 | 18.89° C | 36% | 1024.6 hPa | - | - | - | - |
| 1777540153 | 18.33° C | 37% | 1024.5 hPa | - | - | - | - |
| 1777539538 | 17.78° C | 37% | 1024.6 hPa | - | - | - | - |
| 1777538924 | 17.22° C | 38% | 1024.7 hPa | - | - | - | - |
| 1777538310 | 16.67° C | 38% | 1024.8 hPa | - | - | - | - |
| 1777537081 | 15.56° C | 40% | 1024.9 hPa | - | - | - | - |
| 1777536467 | 15° C | 41% | 1024.9 hPa | - | - | - | - |
| 1777535853 | 14.44° C | 41% | 1024.9 hPa | - | - | - | - |
| 1777535238 | 13.89° C | 42% | 1025 hPa | - | - | - | - |
| 1777534624 | 13.33° C | 43% | 1024.9 hPa | - | - | - | - |
| 1777534009 | 12.78° C | 44% | 1025 hPa | - | - | - | - |
| 1777533395 | 12.22° C | 45% | 1025 hPa | - | - | - | - |
| 1777532781 | 11.67° C | 46% | 1025 hPa | - | - | - | - |
| 1777532167 | 11.11° C | 46% | 1025 hPa | - | - | - | - |
| 1777531553 | 10.56° C | 46% | 1025 hPa | - | - | - | - |
| 1777530939 | 10.56° C | 46% | 1025 hPa | - | - | - | - |
| 1777530325 | 10° C | 47% | 1025 hPa | - | - | - | - |
| 1777529711 | 9.44° C | 47% | 1025.2 hPa | - | - | - | - |
| 1777528482 | 9.44° C | 47% | 1025.2 hPa | - | - | - | - |
| 1777527868 | 9.44° C | 46% | 1025.1 hPa | - | - | - | - |
| 1777527254 | 9.44° C | 46% | 1025.1 hPa | - | - | - | - |
| 1777526639 | 9.44° C | 46% | 1025.1 hPa | - | - | - | - |
| 1777526025 | 9.44° C | 46% | 1025 hPa | - | - | - | - |
| 1777525411 | 9.44° C | 46% | 1024.9 hPa | - | - | - | - |
| 1777524794 | 9.44° C | 45% | 1024.8 hPa | - | - | - | - |
* Rain since midnight (hover to see other rain measurements)
** Current wind speed in m/s (hover to see current wind gust speed)